Weather at Ségou Airport [CLOSED]

Public forecast

Using degrees Celsius for public forecast. Weather courtesy of forecast.io.

Closest aviation weather report (METAR) to Ségou Airport

Report is more than 6 hours old.

Closest report is Modibo Keita International Airport, 107.4 nm (198.8 km) WSW.

2022/11/14 15:30 (retrieved 2 years ago)

GABS 141530Z 10006KT 070V130 9999 SCT025 FEW030CB 34/18 Q1011 TEMPO TS

Closest aviation forecast (TAF) to Ségou Airport

Forecast is more than 12 hours old.

Closest forecast is Modibo Keita International Airport, 107.4 nm (198.8 km) WSW.

2023/02/22 18:51 (retrieved 1 year ago)

TAF TAF GABS 221700Z 2218/2324 05008KT 8000 NSC